Sarcobatus Flat, Nevada Weather observations

Data are for observation ending at time listed.
 Day   Time    Ave.   Ave.  Ave.  Vector   Max.   Stn.    Total    Solar   Ave.  
  of    of     Air    Rel.  Wind   Wind    Wind   Baro.  Precip.   Rad.    Soil  
Year   Day     Temp.  Hum.  Speed  Dir.    Gust   Pres.                    Temp. 
2016   (PST)    F      %     mph   deg.    mph     mb.     in.     W/m2     F   
------------------------------------------------------------------------------
  43    7:30   33.1    70    2.6    75      4.2   887.6    0.00     162    999.0
  43    7:40   33.9    70    3.0   102      4.0   887.5    0.00     136    999.0
  43    7:50   36.2    65    0.9   168      2.1   887.6    0.00     209    999.0
  43    8:00   38.7    60    0.9   137      3.5   887.6    0.00     177    999.0
  43    8:10   37.7    62    2.1    91      3.7   887.5    0.00     135    999.0
  43    8:20   38.1    62    2.5    58      4.5   887.6    0.00     146    999.0
  43    8:30   38.5    61    3.1    54      4.5   887.6    0.00     162    999.0
  43    8:40   40.2    58    2.2    70      4.0   887.7    0.00     265    999.0
  43    8:50   42.2    55    2.3   137      3.9   887.7    0.00     367    999.0
  43    9:00   43.2    53    3.6   153      4.5   887.7    0.00     416    999.0
  43    9:10   43.4    52    3.3   154      4.4   887.7    0.00     414    999.0
  43    9:20   44.9    49    2.5   163      4.5   887.7    0.00     480    999.0
  43    9:30   47.4    44    1.4   158      3.0   887.7    0.00     425    999.0
  43    9:40   48.1    43    1.8   135      3.4   887.7    0.00     509    999.0
  43    9:50   50.2    40    1.4   109      3.1   887.6    0.00     530    999.0
  43   10:00   51.2    39    2.0   113      3.9   887.5    0.00     490    999.0
  43   10:10   52.6    37    1.7   158      3.5   887.4    0.00     553    999.0
  43   10:20   54.4    35    2.2   178      4.4   887.4    0.00     633    999.0
  43   10:30   55.8    33    2.2   167      4.1   887.2    0.00     645    999.0
  43   10:40   57.3    31    1.7   167      2.9   887.1    0.00     613    999.0
  43   10:50   59.2    28    1.5   136      3.5   887.0    0.00     721    999.0
  43   11:00   60.2    27    1.9    80      3.7   886.9    0.00     713    999.0
  43   11:10   60.7    25    2.8    94      5.5   886.8    0.00     629    999.0
  43   11:20   62.0    22    1.6   253      4.4   886.7    0.00     601    999.0
  43   11:30   63.7    20    3.1   284      5.6   886.6    0.00     643    999.0
  43   11:40   63.4    19    2.9   245      5.6   886.4    0.00     546    999.0
  43   11:50   64.6    18    1.8   267     10.4   886.2    0.00     598    999.0
  43   12:00   64.7    18    2.6   303      5.3   886.0    0.00     610    999.0
  43   12:10   66.4    17    1.2   294      2.8   885.9    0.00     624    999.0
  43   12:20   66.7    16    1.7   162      5.2   885.7    0.00     675    999.0
  43   12:30   66.3    15    3.1   230      7.1   885.5    0.00     691    999.0
  43   12:40   66.3    14    4.0   168      6.8   885.3    0.00     710    999.0
  43   12:50   66.8    14    2.0   191      5.9   885.1    0.00     653    999.0
  43   13:00   67.7    14    2.2   190      5.6   884.9    0.00     652    999.0
  43   13:10   66.6    14    3.0   150      6.9   884.8    0.00     496    999.0
  43   13:20   66.3    15    4.0   147      6.9   884.6    0.00     592    999.0
  43   13:30   66.7    15    3.7   171      6.2   884.5    0.00     611    999.0
  43   13:40   67.0    14    4.7   187      7.0   884.3    0.00     566    999.0
  43   13:50   67.4    14    2.8   192      5.6   884.2    0.00     591    999.0
  43   14:00   67.9    14    5.3   185      8.5   884.1    0.00     592    999.0
  43   14:10   67.4    14    4.8   168      8.3   884.0    0.00     538    999.0
  43   14:20   67.6    14    5.0   181      8.3   884.0    0.00     546    999.0
  43   14:30   67.9    15    5.5   173      9.6   883.9    0.00     518    999.0
  43   14:40   67.8    15    5.3   188      9.2   883.8    0.00     457    999.0
  43   14:50   67.6    15    5.3   188      7.7   883.7    0.00     428    999.0
  43   15:00   67.7    14    5.3   192      7.7   883.7    0.00     475    999.0
  43   15:10   68.3    14    5.9   195      8.3   883.6    0.00     453    999.0
  43   15:20   68.3    14    5.3   193      8.6   883.5    0.00     403    999.0
  43   15:30   68.5    15    5.6   196      8.1   883.5    0.00     301    999.0
  43   15:40   68.4    14    6.7   190      8.8   883.4    0.00     293    999.0
  43   15:50   68.0    15    6.9   193      8.9   883.4    0.00     238    999.0
  43   16:00   67.7    15    6.7   194      8.5   883.4    0.00     249    999.0
  43   16:10   68.1    14    6.6   193      8.8   883.4    0.00     260    999.0
  43   16:20   67.9    13    7.0   199      8.2   883.4    0.00     200    999.0
  43   16:30   67.2    14    6.1   202      7.9   883.5    0.00     118    999.0
  43   16:40   67.4    14    5.9   213      7.1   883.5    0.00     149    999.0
  43   16:50   67.2    14    4.5   210      5.6   883.6    0.00     111    999.0
  43   17:00   65.6    15    4.0   213      4.7   883.7    0.00      47    999.0
  43   17:10   63.3    18    4.3   202      5.0   883.7    0.00      32    999.0
  43   17:20   61.7    19    4.1   217      4.5   883.8    0.00      12    999.0
  43   17:30   60.6    20    3.7   225      4.2   883.8    0.00       4    999.0
  43   17:40   59.7    20    2.9   234      3.2   883.9    0.00       1    999.0
  43   17:50   56.0    23    3.2    53      4.7   884.0    0.00       0    999.0
  43   18:00   52.8    26    3.7    74      5.0   884.0    0.00       0    999.0
  43   18:10   50.6    28    3.5    37      4.5   884.1    0.00       0    999.0
  43   18:20   47.5    33    4.6   347      5.5   884.2    0.00       0    999.0
  43   18:30   49.6    31    3.6     2      5.5   884.2    0.00       0    999.0
  43   18:40   48.6    32    2.7   284      7.7   884.3    0.00       0    999.0
  43   18:50   47.3    34    4.7   299      5.8   884.3    0.00       0    999.0
  43   19:00   46.3    35    4.0   336      5.9   884.3    0.00       0    999.0
  43   19:10   45.7    35    4.5    20      6.0   884.4    0.00       0    999.0
  43   19:20   45.0    37    3.5    22      4.6   884.5    0.00       0    999.0
  43   19:30   43.9    38    2.8    21      3.7   884.5    0.00       0    999.0
  43   19:40   42.5    41    3.0     5      3.9   884.5    0.00       0    999.0
  43   19:50   41.4    43    3.4   329      5.0   884.5    0.00       0    999.0
  43   20:00   40.9    44    5.0   323      5.8   884.6    0.00       0    999.0
  43   20:10   40.9    45    5.6   334      6.1   884.7    0.00       0    999.0
  43   20:20   40.7    45    4.3   350      5.2   884.8    0.00       0    999.0
  43   20:30   40.3    46    2.7   350      3.7   884.8    0.00       0    999.0
  43   20:40   39.6    47    2.3   336      2.7   884.8    0.00       0    999.0
  43   20:50   38.8    49    3.1   336      4.5   884.8    0.00       0    999.0
  43   21:00   38.8    50    3.4   348      4.7   884.9    0.00       0    999.0
  43   21:10   38.9    51    3.6   339      4.5   884.9    0.00       0    999.0
  43   21:20   39.4    50    3.4   325      4.5   885.0    0.00       0    999.0
  43   21:30   38.7    50    4.6   319      5.4   885.0    0.00       0    999.0
  43   21:40   38.8    51    4.1   320      5.0   885.0    0.00       0    999.0
  43   21:50   38.8    52    3.6   342      4.7   885.0    0.00       0    999.0
  43   22:00   37.5    53    3.8   349      4.9   885.0    0.00       0    999.0
  43   22:10   35.8    56    0.4     1      1.6   885.0    0.00       0    999.0
  43   22:20   36.2    56    1.9   356      2.9   885.0    0.00       0    999.0
  43   22:30   37.0    54    2.1   358      2.7   885.0    0.00       0    999.0
  43   22:40   35.0    58    2.4   342      3.3   885.0    0.00       0    999.0
  43   22:50   34.5    59    2.3   333      3.2   885.0    0.00       0    999.0
  43   23:00   34.4    60    3.4   325      4.8   885.0    0.00       0    999.0
  43   23:10   34.6    62    4.4   328      5.2   885.0    0.00       0    999.0
  43   23:20   34.5    62    4.5   337      5.3   885.0    0.00       0    999.0
  43   23:30   35.0    59    3.4    10      4.5   885.0    0.00       0    999.0
  43   23:40   34.6    60    1.3    32      4.0   885.0    0.00       0    999.0
  43   23:50   34.5    60    1.7   345      3.8   885.0    0.00       0    999.0
  44    0:00   34.0    62    4.4   337      6.3   885.0    0.00       0    999.0
  44    0:10   35.5    59    5.4   347      6.6   884.9    0.00       0    999.0
  44    0:20   34.9    61    4.9   342      5.8   884.9    0.00       0    999.0
  44    0:30   35.4    64    4.9   344      5.6   884.9    0.00       0    999.0
  44    0:40   34.5    63    5.1   349      6.1   884.8    0.00       0    999.0
  44    0:50   33.9    64    5.8   349      7.3   884.9    0.00       0    999.0
  44    1:00   35.6    64    5.9   354      7.7   885.0    0.00       0    999.0
  44    1:10   35.6    63    6.4   358      8.4   885.0    0.00       0    999.0
  44    1:20   36.1    60    5.0    16      8.5   885.0    0.00       0    999.0
  44    1:30   38.2    60    6.1     7      9.1   885.0    0.00       0    999.0
  44    1:40   39.2    58    4.0    19      7.7   884.9    0.00       0    999.0
  44    1:50   36.0    60    3.3    15      5.8   884.9    0.00       0    999.0
  44    2:00   38.2    58    4.7    13      6.8   884.9    0.00       0    999.0
  44    2:10   38.6    60    5.0     5      8.3   884.8    0.00       0    999.0
  44    2:20   39.1    62    6.3     1     10.1   884.8    0.00       0    999.0
  44    2:30   39.4    62    6.2   359      9.2   884.8    0.00       0    999.0
  44    2:40   40.7    59    8.3   350     11.1   884.8    0.00       0    999.0
  44    2:50   40.9    59    6.6   357     12.0   884.8    0.00       0    999.0
  44    3:00   40.6    60    8.5   354     12.9   884.6    0.00       0    999.0
  44    3:10   40.9    59   10.0   343     14.0   884.6    0.00       0    999.0
  44    3:20   41.0    58   10.1   354     14.0   884.5    0.00       0    999.0
  44    3:30   42.1    56    8.0     4     13.3   884.6    0.00       0    999.0
  44    3:40   41.8    56    6.4     2     10.8   884.6    0.00       0    999.0
  44    3:50   40.7    58    4.4    14      8.3   884.5    0.00       0    999.0
  44    4:00   41.6    56    8.9   349     15.1   884.5    0.00       0    999.0
  44    4:10   41.6    55    8.9   340     13.9   884.5    0.00       0    999.0
  44    4:20   40.6    58    6.5   356      9.8   884.6    0.00       0    999.0
  44    4:30   38.9    60    2.9    25      7.7   884.8    0.00       0    999.0
  44    4:40   39.1    60    4.9   356      9.5   884.7    0.00       0    999.0
  44    4:50   39.1    60    1.0   350      3.5   884.8    0.00       0    999.0
  44    5:00   37.1    63    0.7    26      3.7   884.9    0.00       0    999.0
  44    5:10   36.9    65    3.7     8      6.9   884.9    0.00       0    999.0
  44    5:20   37.3    63    6.1     3      9.7   885.0    0.00       0    999.0
  44    5:30   33.8    68    3.3    70      4.7   885.1    0.00       0    999.0
  44    5:40   35.0    67    2.9    48      5.3   885.1    0.00       0    999.0
  44    5:50   37.6    62    3.6    27      6.5   885.2    0.00       0    999.0
  44    6:00   38.1    63    4.3     3      6.6   885.3    0.00       0    999.0
  44    6:10   36.8    64    3.2    25      6.1   885.3    0.00       0    999.0
  44    6:20   37.5    64    4.6     2      8.0   885.4    0.00       0    999.0
  44    6:30   38.4    63    5.2     4      8.6   885.5    0.00       1    999.0
  44    6:40   37.5    64    3.2    17      5.0   885.5    0.00       7    999.0
  44    6:50   37.0    65    2.9    17      5.1   885.6    0.00      10    999.0
  44    7:00   36.2    66    3.2    10      6.3   885.6    0.00      41    999.0
  44    7:10   37.5    64    5.5     5      8.4   885.7    0.00      68    999.0
  44    7:20   39.3    62    5.8   342      7.8   885.7    0.00      93    999.0

Return to Sarcobatus Flat, Nevada graphs page.


Western Regional Climate Center,wrcc@dri.edu